Time;durP1;ratioP1;P1;durP2;ratioP2;P2;SDS_P1;SDS_P2;PMS_P1;PMS_P2;Temp;Humidity;BMP_temperature;BMP_pressure;BME280_temperature;BME280_humidity;BME280_pressure;Samples;Min_cycle;Max_cycle;Signal;HPM_P1;HPM_P2
2023/01/24 00:00:14;;;;;;;25.23;10.95;;;;;;;2.43;100.00;100087.06;2551670;28;20050;-85
2023/01/24 00:01:49;;;;;;;20.23;8.80;;;;;;;2.39;100.00;100089.56;2552674;29;20170;-89
2023/01/24 00:03:05;;;;;;;22.75;10.35;;;;;;;2.61;100.00;100090.22;2552177;29;20503;-88
2023/01/24 00:04:20;;;;;;;25.05;11.00;;;;;;;2.44;100.00;100091.41;2552014;28;20052;-86
2023/01/24 00:05:36;;;;;;;23.58;10.18;;;;;;;2.38;100.00;100092.09;2550092;29;20454;-85
2023/01/24 00:06:51;;;;;;;23.27;10.13;;;;;;;2.60;100.00;100093.63;2550407;29;20063;-87
2023/01/24 00:08:08;;;;;;;25.08;10.90;;;;;;;2.72;100.00;100097.44;2550577;28;20098;-86
2023/01/24 00:09:24;;;;;;;23.52;10.50;;;;;;;2.71;100.00;100093.09;2552822;29;20410;-85
2023/01/24 00:10:41;;;;;;;23.77;10.70;;;;;;;2.76;100.00;100084.66;2549703;29;20360;-87
2023/01/24 00:11:56;;;;;;;22.45;10.80;;;;;;;2.67;100.00;100098.19;2564870;28;20694;-88
2023/01/24 00:13:13;;;;;;;26.13;11.48;;;;;;;2.71;100.00;100093.94;2559952;28;20100;-86
2023/01/24 00:14:29;;;;;;;22.65;11.20;;;;;;;2.66;100.00;100091.25;2550326;29;20055;-87
2023/01/24 00:15:44;;;;;;;22.98;11.13;;;;;;;2.64;100.00;100092.88;2552691;28;20059;-85
2023/01/24 00:17:00;;;;;;;23.85;11.43;;;;;;;2.82;100.00;100096.91;2552061;29;20081;-86
2023/01/24 00:18:16;;;;;;;22.42;10.55;;;;;;;2.81;100.00;100090.81;2552825;28;20047;-89
2023/01/24 00:19:31;;;;;;;24.75;11.32;;;;;;;2.70;100.00;100088.75;2551652;29;20051;-89
2023/01/24 00:20:46;;;;;;;26.90;11.65;;;;;;;2.68;100.00;100086.09;2552416;28;20047;-85
2023/01/24 00:22:06;;;;;;;22.02;11.52;;;;;;;2.83;100.00;100083.13;2550624;28;20066;-86
2023/01/24 00:23:22;;;;;;;25.80;12.07;;;;;;;2.92;100.00;100093.72;2551535;29;20130;-85
2023/01/24 00:24:38;;;;;;;23.08;11.63;;;;;;;2.91;100.00;100088.53;2552341;29;20055;-86
2023/01/24 00:25:53;;;;;;;26.40;12.05;;;;;;;2.86;100.00;100085.78;2550393;29;20542;-85
2023/01/24 00:27:09;;;;;;;25.38;11.80;;;;;;;2.87;100.00;100082.38;2551976;28;20055;-85
2023/01/24 00:28:24;;;;;;;24.55;12.02;;;;;;;2.91;100.00;100088.53;2549813;29;20978;-85
2023/01/24 00:29:40;;;;;;;24.27;11.73;;;;;;;2.82;100.00;100086.53;2550066;28;20051;-87
2023/01/24 00:30:55;;;;;;;29.27;12.68;;;;;;;2.66;100.00;100086.09;2550419;29;20082;-87
2023/01/24 00:32:11;;;;;;;26.08;11.73;;;;;;;2.72;100.00;100081.91;2552492;28;20474;-85
2023/01/24 00:33:27;;;;;;;26.55;12.27;;;;;;;2.73;100.00;100089.72;2550762;29;20047;-85
2023/01/24 00:34:43;;;;;;;25.88;12.40;;;;;;;2.48;100.00;100082.91;2549868;29;20406;-85
2023/01/24 00:35:59;;;;;;;28.95;12.82;;;;;;;2.66;100.00;100093.84;2549146;29;20050;-86
2023/01/24 00:37:14;;;;;;;26.17;12.48;;;;;;;2.63;100.00;100090.28;2552482;29;20071;-85
2023/01/24 00:38:31;;;;;;;28.30;12.35;;;;;;;2.54;100.00;100091.72;2550582;29;21058;-85
2023/01/24 00:39:46;;;;;;;26.65;11.48;;;;;;;2.60;100.00;100092.78;2551951;29;20058;-86
2023/01/24 00:41:02;;;;;;;24.40;12.23;;;;;;;2.75;100.00;100090.66;2552397;29;20043;-86
2023/01/24 00:42:18;;;;;;;24.83;11.55;;;;;;;2.71;100.00;100098.28;2551197;28;20078;-90
2023/01/24 00:43:33;;;;;;;27.88;11.73;;;;;;;2.69;100.00;100098.22;2550186;29;20113;-86
2023/01/24 00:44:49;;;;;;;28.95;13.00;;;;;;;2.67;100.00;100090.41;2552439;28;20083;-86
2023/01/24 00:46:07;;;;;;;27.73;13.05;;;;;;;2.78;100.00;100092.44;2550602;29;20058;-86
2023/01/24 00:47:24;;;;;;;27.40;12.65;;;;;;;2.86;100.00;100092.66;2550682;29;20554;-91
2023/01/24 00:48:40;;;;;;;34.28;13.52;;;;;;;2.77;100.00;100096.75;2551668;29;20047;-85
2023/01/24 00:49:55;;;;;;;31.55;13.68;;;;;;;2.67;100.00;100098.19;2550494;28;20066;-86
2023/01/24 00:51:11;;;;;;;31.65;13.85;;;;;;;2.52;100.00;100095.97;2549778;29;20052;-86
2023/01/24 00:52:26;;;;;;;35.63;15.45;;;;;;;2.64;100.00;100100.66;2552271;29;20086;-85
2023/01/24 00:53:42;;;;;;;35.28;14.80;;;;;;;2.76;100.00;100104.44;2551784;28;20590;-85
2023/01/24 00:54:58;;;;;;;40.58;15.07;;;;;;;2.44;100.00;100106.91;2550751;29;20060;-86
2023/01/24 00:56:13;;;;;;;37.05;15.10;;;;;;;2.44;100.00;100110.34;2550390;29;20066;-86
2023/01/24 00:57:29;;;;;;;35.67;15.45;;;;;;;2.61;100.00;100105.72;2550265;29;20134;-87
2023/01/24 00:58:45;;;;;;;37.83;16.00;;;;;;;2.58;100.00;100105.63;2552503;28;20055;-87
2023/01/24 01:00:00;;;;;;;32.22;14.93;;;;;;;2.59;100.00;100109.97;2552411;28;20047;-88
2023/01/24 01:01:16;;;;;;;34.53;14.70;;;;;;;2.36;100.00;100101.50;2551554;28;20044;-85
2023/01/24 01:02:32;;;;;;;27.02;12.32;;;;;;;2.25;100.00;100106.34;2549433;29;20460;-84
2023/01/24 01:03:47;;;;;;;27.75;12.27;;;;;;;2.33;100.00;100099.69;2551049;28;20051;-85
2023/01/24 01:05:04;;;;;;;23.40;10.95;;;;;;;2.06;100.00;100110.88;2550691;29;20059;-86
2023/01/24 01:06:19;;;;;;;30.25;13.32;;;;;;;2.40;100.00;100109.41;2550148;29;20081;-85
2023/01/24 01:07:35;;;;;;;28.02;12.35;;;;;;;2.55;100.00;100105.56;2550759;28;20056;-88
2023/01/24 01:08:52;;;;;;;26.10;12.10;;;;;;;2.58;100.00;100110.81;2551624;29;20051;-86
2023/01/24 01:10:09;;;;;;;29.58;13.80;;;;;;;2.71;100.00;100109.47;2552238;28;20055;-87
2023/01/24 01:11:24;;;;;;;37.63;15.10;;;;;;;2.78;100.00;100108.84;2551603;29;20093;-85
2023/01/24 01:12:40;;;;;;;36.75;16.95;;;;;;;2.64;100.00;100107.53;2549424;29;20070;-85
2023/01/24 01:13:56;;;;;;;39.03;16.10;;;;;;;2.44;100.00;100112.09;2550044;29;20055;-85
2023/01/24 01:15:12;;;;;;;35.95;15.60;;;;;;;2.61;100.00;100116.06;2550379;29;20138;-87
2023/01/24 01:16:27;;;;;;;34.63;15.45;;;;;;;2.66;100.00;100109.34;2549972;29;20051;-86
2023/01/24 01:17:43;;;;;;;31.33;14.50;;;;;;;2.63;100.00;100119.59;2550635;29;20068;-85
2023/01/24 01:18:59;;;;;;;32.75;13.98;;;;;;;2.07;100.00;100115.22;2549709;29;20895;-88
2023/01/24 01:20:14;;;;;;;32.88;14.25;;;;;;;2.20;100.00;100120.78;2552700;29;20047;-87
2023/01/24 01:21:30;;;;;;;29.73;13.77;;;;;;;2.29;100.00;100123.69;2550587;28;20090;-86
2023/01/24 01:22:46;;;;;;;31.48;13.48;;;;;;;2.44;100.00;100120.69;2549123;29;20071;-86
2023/01/24 01:24:02;;;;;;;33.63;13.45;;;;;;;2.52;100.00;100126.16;2551057;28;21004;-85
2023/01/24 01:25:18;;;;;;;34.42;14.20;;;;;;;2.40;100.00;100112.00;2551262;29;20091;-86
2023/01/24 01:26:33;;;;;;;31.20;13.60;;;;;;;2.41;100.00;100115.44;2551492;28;20606;-85
2023/01/24 01:27:49;;;;;;;24.08;11.00;;;;;;;2.18;100.00;100119.88;2549141;29;20147;-86
2023/01/24 01:29:05;;;;;;;28.48;12.32;;;;;;;2.29;100.00;100118.50;2550293;29;20062;-86
2023/01/24 01:30:20;;;;;;;32.17;12.57;;;;;;;2.52;100.00;100118.38;2549356;29;20060;-85
2023/01/24 01:31:36;;;;;;;29.90;12.25;;;;;;;2.42;100.00;100114.59;2549809;29;20048;-85
2023/01/24 01:32:52;;;;;;;30.45;12.50;;;;;;;2.63;100.00;100119.59;2549514;29;20048;-89
2023/01/24 01:34:09;;;;;;;29.55;11.65;;;;;;;2.46;100.00;100110.41;2550886;29;20430;-89
2023/01/24 01:35:25;;;;;;;29.00;12.02;;;;;;;2.59;100.00;100115.16;2549555;29;20147;-85
2023/01/24 01:36:41;;;;;;;31.92;12.77;;;;;;;2.38;100.00;100117.94;2552140;29;20055;-86
2023/01/24 01:37:56;;;;;;;31.95;13.15;;;;;;;2.58;100.00;100126.31;2549825;29;20059;-85
2023/01/24 01:39:12;;;;;;;28.92;12.13;;;;;;;2.53;100.00;100118.41;2552267;28;20043;-89
2023/01/24 01:40:27;;;;;;;28.50;12.57;;;;;;;2.54;100.00;100120.16;2550307;28;20058;-85
2023/01/24 01:41:43;;;;;;;33.30;12.52;;;;;;;2.52;100.00;100123.56;2559495;28;20118;-86
2023/01/24 01:42:59;;;;;;;26.27;11.52;;;;;;;2.55;100.00;100126.25;2555706;28;20047;-88
2023/01/24 01:44:38;;;;;;;27.33;11.93;;;;;;;2.71;100.00;100119.81;2551138;28;20126;-86
2023/01/24 01:45:59;;;;;;;25.50;11.32;;;;;;;2.67;100.00;100115.38;2549664;29;20522;-85
2023/01/24 01:47:30;;;;;;;28.15;12.70;;;;;;;2.49;100.00;100121.75;2549023;29;20043;-85
2023/01/24 01:48:53;;;;;;;26.98;12.48;;;;;;;2.52;100.00;100115.81;2549812;29;20066;-86
2023/01/24 01:50:23;;;;;;;29.63;12.88;;;;;;;2.59;100.00;100120.31;2551412;29;20530;-87
2023/01/24 01:51:45;;;;;;;30.33;13.95;;;;;;;2.57;100.00;100118.50;2564626;28;20055;-85
2023/01/24 01:53:01;;;;;;;29.15;12.05;;;;;;;2.52;100.00;100124.41;2557659;28;20429;-89
2023/01/24 01:54:21;;;;;;;29.13;13.02;;;;;;;2.44;100.00;100119.84;2550381;29;20060;-86
2023/01/24 01:55:40;;;;;;;27.70;13.48;;;;;;;2.49;100.00;100123.44;2551768;28;20538;-86
2023/01/24 01:57:03;;;;;;;31.40;12.88;;;;;;;2.42;100.00;100118.91;2550499;29;20362;-85
2023/01/24 01:58:19;;;;;;;26.35;13.27;;;;;;;2.22;100.00;100125.19;2550337;29;20565;-90
2023/01/24 01:59:50;;;;;;;31.08;12.27;;;;;;;2.30;100.00;100120.28;2549950;29;20106;-85
2023/01/24 02:01:06;;;;;;;31.30;13.15;;;;;;;2.30;100.00;100128.03;2551782;28;20086;-86
2023/01/24 02:02:22;;;;;;;29.85;13.25;;;;;;;2.48;100.00;100125.16;2552023;28;20484;-85
2023/01/24 02:03:51;;;;;;;30.95;13.77;;;;;;;2.60;100.00;100124.66;2550371;29;20047;-85
2023/01/24 02:05:09;;;;;;;25.88;11.30;;;;;;;2.41;100.00;100120.59;2551636;29;20338;-86
2023/01/24 02:06:46;;;;;;;27.00;12.20;;;;;;;2.51;100.00;100119.19;2552473;29;20063;-90
2023/01/24 02:08:05;;;;;;;30.73;12.43;;;;;;;2.51;100.00;100126.94;2551212;29;20158;-85
2023/01/24 02:09:26;;;;;;;27.10;11.48;;;;;;;2.24;100.00;100123.53;2552011;29;20055;-86
2023/01/24 02:12:19;;;;;;;25.52;11.65;;;;;;;2.61;100.00;100116.06;2551259;29;20063;-87
2023/01/24 02:13:39;;;;;;;27.67;11.68;;;;;;;2.48;100.00;100114.81;2553005;29;20047;-85
2023/01/24 02:16:39;;;;;;;21.60;10.23;;;;;;;2.46;100.00;100120.75;2551657;29;20083;-85
2023/01/24 02:17:55;;;;;;;22.73;11.20;;;;;;;2.32;100.00;100128.94;2553132;29;20051;-85
2023/01/24 02:19:35;;;;;;;23.05;10.25;;;;;;;2.20;100.00;100115.63;2553897;29;20074;-87
2023/01/24 02:20:51;;;;;;;23.25;10.93;;;;;;;2.67;100.00;100116.28;2552780;29;20055;-85
2023/01/24 02:22:16;;;;;;;23.65;10.35;;;;;;;2.73;100.00;100117.28;2553743;29;20478;-85
2023/01/24 02:23:36;;;;;;;28.77;12.18;;;;;;;2.73;100.00;100112.13;2552644;28;20051;-85
2023/01/24 02:25:20;;;;;;;27.50;11.88;;;;;;;2.56;100.00;100117.66;2550910;29;20130;-85
2023/01/24 02:26:37;;;;;;;22.40;10.30;;;;;;;2.40;100.00;100117.16;2550531;29;20581;-85
2023/01/24 02:27:54;;;;;;;28.05;10.93;;;;;;;2.57;100.00;100116.81;2552869;29;20490;-85
2023/01/24 02:29:14;;;;;;;26.60;12.32;;;;;;;2.65;100.00;100117.94;2551210;29;20063;-87
2023/01/24 02:30:30;;;;;;;24.85;12.15;;;;;;;2.42;100.00;100111.16;2552124;29;20126;-88
2023/01/24 02:31:59;;;;;;;30.23;12.00;;;;;;;2.37;100.00;100111.88;2551026;28;20059;-85
2023/01/24 02:33:17;;;;;;;22.70;10.68;;;;;;;2.32;100.00;100110.84;2552497;29;20078;-86
2023/01/24 02:34:33;;;;;;;26.70;12.05;;;;;;;2.49;100.00;100108.81;2551684;29;20062;-86
2023/01/24 02:35:49;;;;;;;27.85;12.20;;;;;;;2.35;100.00;100105.78;2553046;28;20077;-87
2023/01/24 02:37:10;;;;;;;24.67;11.38;;;;;;;2.27;100.00;100109.84;2553727;29;20083;-85
2023/01/24 02:38:28;;;;;;;26.33;12.32;;;;;;;2.36;100.00;100106.66;2552389;28;20510;-84
2023/01/24 02:40:07;;;;;;;26.83;11.63;;;;;;;2.51;100.00;100108.84;2552179;29;20055;-86
2023/01/24 02:41:28;;;;;;;22.88;10.13;;;;;;;2.52;100.00;100105.47;2551594;29;20090;-84
2023/01/24 02:42:44;;;;;;;24.45;11.30;;;;;;;2.60;100.00;100111.72;2552868;28;20558;-86
2023/01/24 02:44:04;;;;;;;28.67;12.05;;;;;;;2.50;100.00;100096.75;2551627;29;20059;-88
2023/01/24 02:45:27;;;;;;;24.40;10.82;;;;;;;2.17;100.00;100103.50;2552181;29;20489;-87
2023/01/24 02:46:44;;;;;;;29.83;11.85;;;;;;;2.22;100.00;100104.50;2552894;29;20129;-85
2023/01/24 02:48:00;;;;;;;25.27;10.82;;;;;;;2.45;100.00;100103.50;2553506;29;20086;-87
2023/01/24 02:49:16;;;;;;;26.50;11.50;;;;;;;2.48;100.00;100108.75;2551265;29;20043;-86
2023/01/24 02:53:29;;;;;;;26.67;12.13;;;;;;;2.51;100.00;100101.97;2553158;29;20059;-85
2023/01/24 02:53:42;;;;;;;28.70;11.80;;;;;;;2.51;100.00;100099.41;2550639;29;20079;-85
2023/01/24 02:54:58;;;;;;;28.00;12.15;;;;;;;2.60;100.00;100098.81;2551165;29;20051;-85
2023/01/24 02:58:06;;;;;;;34.33;13.38;;;;;;;2.52;100.00;100100.28;2551602;29;20469;-86
2023/01/24 02:59:21;;;;;;;27.15;11.88;;;;;;;2.54;100.00;100103.81;2550674;28;20498;-89
2023/01/24 03:00:40;;;;;;;25.95;11.95;;;;;;;2.37;100.00;100106.69;2553488;28;20055;-85
2023/01/24 03:01:55;;;;;;;23.08;10.32;;;;;;;2.30;100.00;100107.34;2551154;29;20675;-86
2023/01/24 03:03:11;;;;;;;29.25;11.63;;;;;;;2.34;100.00;100110.91;2551339;29;20048;-85
2023/01/24 03:04:26;;;;;;;25.45;11.48;;;;;;;2.47;100.00;100112.19;2550229;29;20048;-86
2023/01/24 03:05:57;;;;;;;27.25;11.95;;;;;;;2.13;100.00;100111.94;2550524;29;20052;-85
2023/01/24 03:07:13;;;;;;;28.95;11.45;;;;;;;2.32;100.00;100107.41;2552102;29;20051;-86
2023/01/24 03:08:31;;;;;;;25.42;11.18;;;;;;;2.52;100.00;100108.06;2551009;29;20058;-85
2023/01/24 03:09:47;;;;;;;30.33;11.95;;;;;;;2.26;100.00;100103.78;2553292;28;20147;-86
2023/01/24 03:11:03;;;;;;;29.55;12.88;;;;;;;2.50;100.00;100101.94;2552590;28;20059;-85
2023/01/24 03:34:45;;;;;;;25.92;11.13;;;;;;;2.70;100.00;100110.31;2551860;29;20135;-86
2023/01/24 03:36:01;;;;;;;27.48;10.77;;;;;;;2.50;100.00;100107.09;2553011;29;20555;-89
2023/01/24 03:39:53;;;;;;;24.67;10.05;;;;;;;2.25;100.00;100119.25;2553171;28;20141;-85
2023/01/24 03:40:29;;;;;;;26.30;10.18;;;;;;;2.33;100.00;100112.59;2550805;29;20503;-86
2023/01/24 03:41:45;;;;;;;23.60;9.93;;;;;;;2.24;100.00;100113.19;2551310;28;20083;-86
2023/01/24 03:43:01;;;;;;;25.05;10.68;;;;;;;2.25;100.00;100117.53;2550743;29;20773;-86
2023/01/24 03:44:17;;;;;;;23.98;10.70;;;;;;;2.35;100.00;100113.53;2551834;29;20052;-85
2023/01/24 03:45:35;;;;;;;26.75;11.30;;;;;;;2.63;100.00;100113.53;2549929;29;20141;-87
2023/01/24 03:46:51;;;;;;;24.30;10.30;;;;;;;2.49;100.00;100110.50;2551905;29;20084;-85
2023/01/24 03:48:14;;;;;;;25.50;10.38;;;;;;;2.35;100.00;100110.09;2552883;29;20060;-85
2023/01/24 03:52:39;;;;;;;21.02;9.23;;;;;;;2.50;100.00;100110.56;2551335;29;20130;-90
2023/01/24 03:53:54;;;;;;;24.60;10.60;;;;;;;2.54;100.00;100117.59;2552649;28;20059;-85
2023/01/24 03:55:10;;;;;;;29.23;11.25;;;;;;;2.62;100.00;100116.97;2550073;29;20138;-86
2023/01/24 03:56:26;;;;;;;21.80;9.18;;;;;;;2.46;100.00;100118.19;2551600;28;20083;-85
2023/01/24 03:57:41;;;;;;;23.77;9.40;;;;;;;2.46;100.00;100116.50;2552607;28;20601;-85
2023/01/24 03:58:57;;;;;;;25.95;11.45;;;;;;;2.49;100.00;100114.00;2552034;29;20427;-87
2023/01/24 04:00:13;;;;;;;23.27;9.93;;;;;;;2.58;100.00;100109.91;2551660;28;20121;-87
2023/01/24 04:01:29;;;;;;;23.67;10.63;;;;;;;2.60;100.00;100113.47;2552542;29;20047;-85
2023/01/24 04:02:44;;;;;;;24.38;10.77;;;;;;;2.68;100.00;100112.88;2552492;29;20062;-90
2023/01/24 04:04:00;;;;;;;27.23;11.02;;;;;;;2.59;100.00;100112.56;2550831;28;20143;-85
2023/01/24 04:05:16;;;;;;;26.15;11.30;;;;;;;2.75;100.00;100113.03;2551687;28;20043;-85
2023/01/24 04:06:31;;;;;;;25.80;10.95;;;;;;;2.63;100.00;100110.97;2551209;28;20086;-84
2023/01/24 04:07:47;;;;;;;26.27;11.13;;;;;;;2.64;100.00;100115.31;2551470;29;20060;-86
2023/01/24 04:09:03;;;;;;;23.10;9.93;;;;;;;2.48;100.00;100111.34;2550195;29;20122;-88
2023/01/24 04:10:19;;;;;;;27.63;11.05;;;;;;;2.56;100.00;100115.06;2550957;29;20051;-86
2023/01/24 04:11:34;;;;;;;27.60;11.30;;;;;;;2.53;100.00;100117.56;2550867;29;20138;-83
2023/01/24 04:12:50;;;;;;;25.92;11.32;;;;;;;2.67;100.00;100118.88;2551711;29;20223;-87
2023/01/24 04:14:05;;;;;;;27.20;12.48;;;;;;;2.63;100.00;100117.00;2550375;29;20114;-87
2023/01/24 04:15:24;;;;;;;25.10;10.35;;;;;;;2.67;100.00;100112.81;2549750;29;20581;-84
2023/01/24 04:16:40;;;;;;;24.95;10.55;;;;;;;2.72;100.00;100110.38;2550254;29;20406;-85
2023/01/24 04:18:00;;;;;;;21.52;9.98;;;;;;;2.53;100.00;100114.97;2550949;28;20224;-85
2023/01/24 04:19:16;;;;;;;25.05;10.90;;;;;;;2.54;100.00;100104.66;2550469;29;20514;-86
2023/01/24 04:20:35;;;;;;;26.60;10.80;;;;;;;2.68;100.00;100104.22;2551892;29;20055;-86
2023/01/24 04:21:50;;;;;;;29.35;12.48;;;;;;;2.60;100.00;100103.97;2549588;28;20058;-86
2023/01/24 04:23:07;;;;;;;26.70;11.40;;;;;;;2.74;100.00;100100.94;2551369;29;20082;-86
2023/01/24 04:24:23;;;;;;;28.10;12.10;;;;;;;2.67;100.00;100102.47;2548741;29;20142;-86
2023/01/24 04:25:39;;;;;;;25.25;10.90;;;;;;;2.53;100.00;100102.03;2550346;28;20138;-86
2023/01/24 04:26:54;;;;;;;27.50;11.68;;;;;;;2.52;100.00;100106.31;2551273;29;20074;-85
2023/01/24 04:28:10;;;;;;;27.42;11.82;;;;;;;2.38;100.00;100105.91;2550279;28;20055;-86
2023/01/24 04:29:25;;;;;;;26.52;11.95;;;;;;;2.45;100.00;100112.16;2550405;28;20119;-86
2023/01/24 04:30:41;;;;;;;27.55;11.27;;;;;;;2.19;100.00;100111.28;2551745;29;20406;-85
2023/01/24 04:31:57;;;;;;;27.88;11.60;;;;;;;2.26;100.00;100111.53;2558582;28;20102;-87
2023/01/24 04:33:12;;;;;;;33.45;12.32;;;;;;;2.20;100.00;100107.88;2557741;28;20049;-85
2023/01/24 04:34:28;;;;;;;32.50;13.50;;;;;;;2.14;100.00;100110.25;2550662;29;20479;-85
2023/01/24 04:35:44;;;;;;;33.20;13.20;;;;;;;1.81;100.00;100107.44;2550039;29;20055;-85
2023/01/24 04:36:59;;;;;;;30.63;12.02;;;;;;;1.86;100.00;100112.78;2548957;28;20047;-86
2023/01/24 04:38:15;;;;;;;32.83;11.85;;;;;;;1.94;100.00;100111.34;2550479;29;20053;-86
2023/01/24 04:39:31;;;;;;;37.75;13.52;;;;;;;1.72;100.00;100107.16;2550479;29;20074;-86
2023/01/24 04:40:46;;;;;;;30.98;12.68;;;;;;;1.91;100.00;100106.09;2550661;29;20494;-85
2023/01/24 04:42:02;;;;;;;32.80;13.05;;;;;;;1.88;100.00;100105.09;2551776;28;20422;-85
2023/01/24 04:43:18;;;;;;;34.58;12.85;;;;;;;1.95;100.00;100109.63;2552116;28;20659;-86
2023/01/24 04:44:33;;;;;;;30.33;11.93;;;;;;;1.54;100.00;100104.78;2560953;28;20047;-86
2023/01/24 04:45:49;;;;;;;36.42;12.77;;;;;;;1.87;100.00;100103.34;2557680;28;20051;-87
2023/01/24 04:47:04;;;;;;;35.45;11.90;;;;;;;1.80;100.00;100110.84;2550543;29;20051;-86
2023/01/24 04:48:20;;;;;;;34.45;12.25;;;;;;;2.11;100.00;100103.28;2550796;28;20055;-86
2023/01/24 04:49:36;;;;;;;38.90;12.98;;;;;;;2.06;100.00;100099.69;2551826;28;20055;-87
2023/01/24 04:50:51;;;;;;;32.75;12.40;;;;;;;1.77;100.00;100104.72;2551448;28;20043;-90
2023/01/24 04:52:11;;;;;;;34.97;12.10;;;;;;;1.94;100.00;100106.19;2551597;29;20066;-86
2023/01/24 04:53:28;;;;;;;30.13;13.05;;;;;;;2.06;100.00;100107.44;2550623;29;20519;-85
2023/01/24 04:54:44;;;;;;;34.28;13.20;;;;;;;1.87;100.00;100103.34;2550785;29;20146;-86
2023/01/24 04:56:01;;;;;;;32.30;12.82;;;;;;;2.05;100.00;100109.13;2551476;29;20043;-86
2023/01/24 04:57:17;;;;;;;30.83;11.27;;;;;;;2.02;100.00;100102.97;2551884;29;20044;-86
2023/01/24 04:58:34;;;;;;;30.27;11.35;;;;;;;2.12;100.00;100110.19;2550981;29;20086;-86
2023/01/24 04:59:49;;;;;;;36.30;12.35;;;;;;;1.93;100.00;100107.00;2552404;29;20047;-86
2023/01/24 05:01:05;;;;;;;34.10;12.85;;;;;;;1.83;100.00;100108.41;2550660;28;20043;-86
2023/01/24 05:02:20;;;;;;;30.38;12.23;;;;;;;2.29;100.00;100110.75;2549306;29;20051;-91
2023/01/24 05:03:36;;;;;;;34.33;13.60;;;;;;;2.24;100.00;100110.59;2551219;28;20518;-86
2023/01/24 05:04:52;;;;;;;31.10;12.02;;;;;;;2.03;100.00;100115.94;2550987;29;20073;-86
2023/01/24 05:06:08;;;;;;;31.73;12.55;;;;;;;1.92;100.00;100114.69;2549481;28;20055;-86
2023/01/24 05:07:23;;;;;;;32.45;13.15;;;;;;;2.25;100.00;100111.50;2552133;29;20054;-87
2023/01/24 05:08:39;;;;;;;30.92;13.02;;;;;;;2.40;100.00;100112.00;2550501;29;20079;-86
2023/01/24 05:09:54;;;;;;;32.70;12.68;;;;;;;2.31;100.00;100109.09;2549648;29;20047;-86
2023/01/24 05:11:10;;;;;;;30.48;11.93;;;;;;;2.47;100.00;100101.84;2549611;29;20055;-86
2023/01/24 05:12:25;;;;;;;29.45;12.35;;;;;;;2.46;100.00;100115.59;2551203;28;20055;-86
2023/01/24 05:13:41;;;;;;;34.20;12.85;;;;;;;2.46;100.00;100110.41;2551638;29;20509;-87
2023/01/24 05:14:57;;;;;;;29.13;12.20;;;;;;;2.56;100.00;100115.06;2551054;29;20047;-88
2023/01/24 05:16:12;;;;;;;27.35;10.98;;;;;;;2.48;100.00;100113.94;2551014;28;20047;-86
2023/01/24 05:17:28;;;;;;;33.35;13.32;;;;;;;2.26;100.00;100108.09;2550187;28;20047;-86
2023/01/24 05:18:44;;;;;;;27.17;12.10;;;;;;;2.45;100.00;100117.31;2551581;29;20055;-87
2023/01/24 05:19:59;;;;;;;30.02;13.63;;;;;;;2.53;100.00;100108.06;2550883;29;20450;-86
2023/01/24 05:21:17;;;;;;;29.38;11.68;;;;;;;2.60;100.00;100109.16;2550378;29;20549;-86
2023/01/24 05:22:33;;;;;;;27.23;10.85;;;;;;;2.70;100.00;100112.03;2550678;29;20091;-86
2023/01/24 05:23:51;;;;;;;29.95;12.95;;;;;;;2.68;100.00;100106.81;2550871;28;20071;-87
2023/01/24 05:25:06;;;;;;;31.30;12.13;;;;;;;2.56;100.00;100109.88;2548649;28;20499;-85
2023/01/24 05:26:25;;;;;;;37.95;16.17;;;;;;;2.63;100.00;100117.00;2551181;28;20390;-89
2023/01/24 05:27:40;;;;;;;40.40;15.48;;;;;;;2.23;100.00;100119.19;2550555;28;20083;-88
2023/01/24 05:28:56;;;;;;;46.00;17.48;;;;;;;2.53;100.00;100118.41;2551290;28;20422;-87
2023/01/24 05:30:12;;;;;;;107.70;41.83;;;;;;;2.48;100.00;100111.34;2551389;28;20073;-85
2023/01/24 05:31:27;;;;;;;29.70;13.10;;;;;;;2.61;100.00;100116.06;2549867;28;20048;-84
2023/01/24 05:32:43;;;;;;;40.42;16.45;;;;;;;2.61;100.00;100116.06;2551736;28;20051;-85
2023/01/24 05:33:58;;;;;;;28.33;11.35;;;;;;;2.25;100.00;100112.34;2549844;28;20434;-85
2023/01/24 05:35:14;;;;;;;30.45;11.23;;;;;;;2.32;100.00;100120.34;2552422;28;20043;-85
2023/01/24 05:36:31;;;;;;;31.77;12.77;;;;;;;2.56;100.00;100119.34;2550736;28;20057;-85
2023/01/24 05:37:46;;;;;;;36.67;14.98;;;;;;;2.61;100.00;100116.06;2564312;28;20147;-86
2023/01/24 05:39:02;;;;;;;45.58;24.13;;;;;;;2.59;100.00;100119.47;2559850;28;20054;-86
2023/01/24 05:40:18;;;;;;;45.40;24.35;;;;;;;2.63;100.00;100117.00;2550996;28;20055;-85
2023/01/24 05:41:33;;;;;;;35.15;18.48;;;;;;;2.61;100.00;100123.84;2553689;28;20130;-86
2023/01/24 05:42:49;;;;;;;32.63;14.65;;;;;;;2.61;100.00;100123.84;2552280;28;20044;-87
2023/01/24 05:44:04;;;;;;;30.75;13.43;;;;;;;2.77;100.00;100124.31;2552854;28;20055;-92
2023/01/24 05:45:20;;;;;;;31.30;13.68;;;;;;;2.51;100.00;100127.84;2553652;28;20102;-89
2023/01/24 05:46:35;;;;;;;40.65;16.30;;;;;;;2.63;100.00;100123.91;2551953;28;20156;-88
2023/01/24 05:47:51;;;;;;;50.50;22.73;;;;;;;2.68;100.00;100127.50;2553456;29;20098;-86
2023/01/24 05:49:07;;;;;;;34.92;15.68;;;;;;;2.65;100.00;100127.41;2553141;29;20090;-86
2023/01/24 05:50:23;;;;;;;34.05;14.43;;;;;;;2.54;100.00;100129.66;2552656;28;20055;-85
2023/01/24 05:51:38;;;;;;;32.67;14.40;;;;;;;2.75;100.00;100129.44;2553805;28;20213;-85
2023/01/24 05:52:54;;;;;;;38.55;15.98;;;;;;;2.48;100.00;100132.91;2551083;28;20069;-87
2023/01/24 05:54:10;;;;;;;34.33;14.43;;;;;;;2.18;100.00;100130.19;2552091;28;20044;-85
2023/01/24 05:55:25;;;;;;;32.45;13.88;;;;;;;2.38;100.00;100123.09;2553269;29;20052;-87
2023/01/24 05:56:41;;;;;;;34.47;14.82;;;;;;;2.53;100.00;100127.91;2552364;28;20052;-85
2023/01/24 05:57:59;;;;;;;29.17;13.20;;;;;;;2.56;100.00;100133.16;2552861;29;20051;-85
2023/01/24 05:59:14;;;;;;;31.90;12.80;;;;;;;2.37;100.00;100126.53;2551703;29;20069;-88
2023/01/24 06:00:30;;;;;;;31.90;13.70;;;;;;;2.55;100.00;100126.25;2551737;28;20134;-86
2023/01/24 06:01:46;;;;;;;26.83;11.52;;;;;;;2.31;100.00;100129.78;2553491;29;20051;-86
2023/01/24 06:03:04;;;;;;;33.58;13.35;;;;;;;2.56;100.00;100128.00;2551888;29;20122;-85
2023/01/24 06:04:19;;;;;;;29.90;13.15;;;;;;;2.38;100.00;100138.63;2551290;28;20058;-86
2023/01/24 06:05:35;;;;;;;38.53;15.93;;;;;;;2.53;100.00;100138.25;2551388;28;20044;-86
2023/01/24 06:06:50;;;;;;;39.63;13.73;;;;;;;2.24;100.00;100143.34;2552888;29;20386;-86
2023/01/24 06:08:06;;;;;;;28.95;13.20;;;;;;;2.33;100.00;100146.22;2551831;29;20098;-88
2023/01/24 06:09:23;;;;;;;26.98;11.60;;;;;;;2.30;100.00;100143.53;2551636;29;20051;-86
2023/01/24 06:10:38;;;;;;;31.25;12.15;;;;;;;2.03;100.00;100139.19;2553944;28;20070;-86
2023/01/24 06:11:54;;;;;;;31.83;13.07;;;;;;;2.34;100.00;100142.78;2551959;29;20086;-88
2023/01/24 06:13:10;;;;;;;32.17;13.70;;;;;;;2.47;100.00;100140.63;2553041;29;20079;-86
2023/01/24 06:14:42;;;;;;;32.08;12.65;;;;;;;2.32;100.00;100152.22;2551470;29;20267;-87
2023/01/24 06:16:12;;;;;;;27.23;10.30;;;;;;;2.63;100.00;100148.03;2552606;29;20341;-86
2023/01/24 06:17:28;;;;;;;27.15;11.27;;;;;;;2.67;100.00;100152.50;2552667;28;20130;-86
2023/01/24 06:18:44;;;;;;;28.75;12.07;;;;;;;2.54;100.00;100150.34;2550883;29;20055;-85
2023/01/24 06:20:00;;;;;;;29.55;12.48;;;;;;;2.60;100.00;100158.28;2551407;29;20498;-85
2023/01/24 06:21:44;;;;;;;29.27;12.65;;;;;;;2.53;100.00;100159.78;2552511;29;20051;-85
2023/01/24 06:23:05;;;;;;;32.67;12.30;;;;;;;2.30;100.00;100161.63;2551632;29;20058;-85
2023/01/24 06:24:24;;;;;;;28.98;11.40;;;;;;;2.33;100.00;100160.84;2550902;29;20414;-88
2023/01/24 06:25:40;;;;;;;31.67;12.63;;;;;;;2.44;100.00;100163.78;2551967;29;20431;-84